sensor_id;sensor_type;location;lat;lon;timestamp;P1;durP1;ratioP1;P2;durP2;ratioP2
71941;SDS011;59997;53.300;-6.260;2023-08-06T00:01:48;7.63;;;1.80;;
71941;SDS011;59997;53.300;-6.260;2023-08-06T00:04:13;9.33;;;1.70;;
71941;SDS011;59997;53.300;-6.260;2023-08-06T00:06:39;7.43;;;1.80;;
71941;SDS011;59997;53.300;-6.260;2023-08-06T00:09:05;7.20;;;1.52;;
71941;SDS011;59997;53.300;-6.260;2023-08-06T00:11:30;11.20;;;1.70;;
71941;SDS011;59997;53.300;-6.260;2023-08-06T00:13:55;8.17;;;1.83;;
71941;SDS011;59997;53.300;-6.260;2023-08-06T00:16:21;6.83;;;1.60;;
71941;SDS011;59997;53.300;-6.260;2023-08-06T00:18:46;8.25;;;1.58;;
71941;SDS011;59997;53.300;-6.260;2023-08-06T00:21:12;7.70;;;1.90;;
71941;SDS011;59997;53.300;-6.260;2023-08-06T00:23:38;7.57;;;1.87;;
71941;SDS011;59997;53.300;-6.260;2023-08-06T00:26:04;6.90;;;1.50;;
71941;SDS011;59997;53.300;-6.260;2023-08-06T00:28:29;8.17;;;1.90;;
71941;SDS011;59997;53.300;-6.260;2023-08-06T00:30:55;8.27;;;1.77;;
71941;SDS011;59997;53.300;-6.260;2023-08-06T00:33:23;6.10;;;1.60;;
71941;SDS011;59997;53.300;-6.260;2023-08-06T00:35:49;8.67;;;1.90;;
71941;SDS011;59997;53.300;-6.260;2023-08-06T00:38:15;8.20;;;1.75;;
71941;SDS011;59997;53.300;-6.260;2023-08-06T00:40:40;6.90;;;1.57;;
71941;SDS011;59997;53.300;-6.260;2023-08-06T00:43:06;6.23;;;1.33;;
71941;SDS011;59997;53.300;-6.260;2023-08-06T00:45:33;9.65;;;1.67;;
71941;SDS011;59997;53.300;-6.260;2023-08-06T00:48:00;10.25;;;1.80;;
71941;SDS011;59997;53.300;-6.260;2023-08-06T00:50:27;7.90;;;1.70;;
71941;SDS011;59997;53.300;-6.260;2023-08-06T00:52:53;8.25;;;1.95;;
71941;SDS011;59997;53.300;-6.260;2023-08-06T00:55:19;12.70;;;1.83;;
71941;SDS011;59997;53.300;-6.260;2023-08-06T00:57:44;8.93;;;1.80;;
71941;SDS011;59997;53.300;-6.260;2023-08-06T01:00:10;9.65;;;2.42;;
71941;SDS011;59997;53.300;-6.260;2023-08-06T01:02:36;8.63;;;1.93;;
71941;SDS011;59997;53.300;-6.260;2023-08-06T01:05:02;8.60;;;2.40;;
71941;SDS011;59997;53.300;-6.260;2023-08-06T01:07:43;10.80;;;2.42;;
71941;SDS011;59997;53.300;-6.260;2023-08-06T01:16:00;7.45;;;1.77;;
71941;SDS011;59997;53.300;-6.260;2023-08-06T01:18:27;8.32;;;2.00;;
71941;SDS011;59997;53.300;-6.260;2023-08-06T01:20:53;10.75;;;2.20;;
71941;SDS011;59997;53.300;-6.260;2023-08-06T01:23:18;11.23;;;1.80;;
71941;SDS011;59997;53.300;-6.260;2023-08-06T01:25:49;10.13;;;2.27;;
71941;SDS011;59997;53.300;-6.260;2023-08-06T01:28:19;7.78;;;1.92;;
71941;SDS011;59997;53.300;-6.260;2023-08-06T01:30:52;7.97;;;2.15;;
71941;SDS011;59997;53.300;-6.260;2023-08-06T01:33:24;8.20;;;1.95;;
71941;SDS011;59997;53.300;-6.260;2023-08-06T01:35:53;10.35;;;1.88;;
71941;SDS011;59997;53.300;-6.260;2023-08-06T01:38:19;8.73;;;1.60;;
71941;SDS011;59997;53.300;-6.260;2023-08-06T01:40:45;9.10;;;2.10;;
71941;SDS011;59997;53.300;-6.260;2023-08-06T01:43:10;10.60;;;2.13;;
71941;SDS011;59997;53.300;-6.260;2023-08-06T01:45:36;7.73;;;1.90;;
71941;SDS011;59997;53.300;-6.260;2023-08-06T01:48:01;8.25;;;2.53;;
71941;SDS011;59997;53.300;-6.260;2023-08-06T01:50:27;8.13;;;2.03;;
71941;SDS011;59997;53.300;-6.260;2023-08-06T01:52:52;7.73;;;2.00;;
71941;SDS011;59997;53.300;-6.260;2023-08-06T01:55:18;9.85;;;1.80;;
71941;SDS011;59997;53.300;-6.260;2023-08-06T01:57:43;13.00;;;2.27;;
71941;SDS011;59997;53.300;-6.260;2023-08-06T02:00:09;10.63;;;1.90;;
71941;SDS011;59997;53.300;-6.260;2023-08-06T02:02:35;8.50;;;2.15;;
71941;SDS011;59997;53.300;-6.260;2023-08-06T02:05:00;10.73;;;2.17;;
71941;SDS011;59997;53.300;-6.260;2023-08-06T02:07:26;10.48;;;2.20;;
71941;SDS011;59997;53.300;-6.260;2023-08-06T02:09:51;9.90;;;2.07;;
71941;SDS011;59997;53.300;-6.260;2023-08-06T02:12:17;8.03;;;1.77;;
71941;SDS011;59997;53.300;-6.260;2023-08-06T02:14:42;10.55;;;2.30;;
71941;SDS011;59997;53.300;-6.260;2023-08-06T02:17:08;10.53;;;2.00;;
71941;SDS011;59997;53.300;-6.260;2023-08-06T02:19:33;9.87;;;2.33;;
71941;SDS011;59997;53.300;-6.260;2023-08-06T02:21:59;11.53;;;2.67;;
71941;SDS011;59997;53.300;-6.260;2023-08-06T02:24:24;9.67;;;2.20;;
71941;SDS011;59997;53.300;-6.260;2023-08-06T02:26:50;9.70;;;2.40;;
71941;SDS011;59997;53.300;-6.260;2023-08-06T02:29:16;9.15;;;2.15;;
71941;SDS011;59997;53.300;-6.260;2023-08-06T02:31:42;9.07;;;2.50;;
71941;SDS011;59997;53.300;-6.260;2023-08-06T02:34:08;10.43;;;2.22;;
71941;SDS011;59997;53.300;-6.260;2023-08-06T02:36:33;13.77;;;2.40;;
71941;SDS011;59997;53.300;-6.260;2023-08-06T02:38:58;9.63;;;2.47;;
71941;SDS011;59997;53.300;-6.260;2023-08-06T02:41:24;10.83;;;2.37;;
71941;SDS011;59997;53.300;-6.260;2023-08-06T02:43:49;10.43;;;2.35;;
71941;SDS011;59997;53.300;-6.260;2023-08-06T02:46:15;10.03;;;2.50;;
71941;SDS011;59997;53.300;-6.260;2023-08-06T02:48:40;8.17;;;2.17;;
71941;SDS011;59997;53.300;-6.260;2023-08-06T02:51:06;10.83;;;2.60;;
71941;SDS011;59997;53.300;-6.260;2023-08-06T02:53:31;10.38;;;2.33;;
71941;SDS011;59997;53.300;-6.260;2023-08-06T02:55:57;11.13;;;2.30;;
71941;SDS011;59997;53.300;-6.260;2023-08-06T02:58:22;10.97;;;2.40;;
71941;SDS011;59997;53.300;-6.260;2023-08-06T03:03:25;9.93;;;2.50;;
71941;SDS011;59997;53.300;-6.260;2023-08-06T03:05:52;10.65;;;2.03;;
71941;SDS011;59997;53.300;-6.260;2023-08-06T03:08:18;7.68;;;2.47;;
71941;SDS011;59997;53.300;-6.260;2023-08-06T03:10:47;9.75;;;2.42;;
71941;SDS011;59997;53.300;-6.260;2023-08-06T03:13:16;14.13;;;2.58;;
71941;SDS011;59997;53.300;-6.260;2023-08-06T03:15:42;8.80;;;2.03;;
71941;SDS011;59997;53.300;-6.260;2023-08-06T03:18:07;9.98;;;2.22;;
71941;SDS011;59997;53.300;-6.260;2023-08-06T03:20:33;8.97;;;2.30;;
71941;SDS011;59997;53.300;-6.260;2023-08-06T03:22:58;8.17;;;1.90;;
71941;SDS011;59997;53.300;-6.260;2023-08-06T03:25:24;9.43;;;1.80;;
71941;SDS011;59997;53.300;-6.260;2023-08-06T03:27:49;8.37;;;1.73;;
71941;SDS011;59997;53.300;-6.260;2023-08-06T03:30:15;8.67;;;2.03;;
71941;SDS011;59997;53.300;-6.260;2023-08-06T03:32:40;8.27;;;2.08;;
71941;SDS011;59997;53.300;-6.260;2023-08-06T03:35:06;10.07;;;2.27;;
71941;SDS011;59997;53.300;-6.260;2023-08-06T03:37:32;9.47;;;2.47;;
71941;SDS011;59997;53.300;-6.260;2023-08-06T03:39:57;8.50;;;1.67;;
71941;SDS011;59997;53.300;-6.260;2023-08-06T03:42:22;10.37;;;1.87;;
71941;SDS011;59997;53.300;-6.260;2023-08-06T03:44:48;7.70;;;1.90;;
71941;SDS011;59997;53.300;-6.260;2023-08-06T03:47:13;7.87;;;1.83;;
71941;SDS011;59997;53.300;-6.260;2023-08-06T03:49:39;8.98;;;2.03;;
71941;SDS011;59997;53.300;-6.260;2023-08-06T03:52:05;10.97;;;2.10;;
71941;SDS011;59997;53.300;-6.260;2023-08-06T03:54:30;9.38;;;1.95;;
71941;SDS011;59997;53.300;-6.260;2023-08-06T03:56:56;6.90;;;1.70;;
71941;SDS011;59997;53.300;-6.260;2023-08-06T03:59:21;9.17;;;2.00;;
71941;SDS011;59997;53.300;-6.260;2023-08-06T04:01:47;11.17;;;2.00;;
71941;SDS011;59997;53.300;-6.260;2023-08-06T04:04:12;10.20;;;1.98;;
71941;SDS011;59997;53.300;-6.260;2023-08-06T04:06:38;9.43;;;1.70;;
71941;SDS011;59997;53.300;-6.260;2023-08-06T04:09:03;8.63;;;1.77;;
71941;SDS011;59997;53.300;-6.260;2023-08-06T04:11:29;8.77;;;2.53;;
71941;SDS011;59997;53.300;-6.260;2023-08-06T04:13:54;9.87;;;1.80;;
71941;SDS011;59997;53.300;-6.260;2023-08-06T04:16:20;8.23;;;1.53;;
71941;SDS011;59997;53.300;-6.260;2023-08-06T04:18:46;6.70;;;1.58;;
71941;SDS011;59997;53.300;-6.260;2023-08-06T04:21:12;6.28;;;1.50;;
71941;SDS011;59997;53.300;-6.260;2023-08-06T04:23:37;7.27;;;1.37;;
71941;SDS011;59997;53.300;-6.260;2023-08-06T04:26:03;7.93;;;1.53;;
71941;SDS011;59997;53.300;-6.260;2023-08-06T04:28:28;8.65;;;1.63;;
71941;SDS011;59997;53.300;-6.260;2023-08-06T04:30:55;7.70;;;1.40;;
71941;SDS011;59997;53.300;-6.260;2023-08-06T04:33:20;8.63;;;1.37;;
71941;SDS011;59997;53.300;-6.260;2023-08-06T04:35:45;9.23;;;1.80;;
71941;SDS011;59997;53.300;-6.260;2023-08-06T04:38:11;9.57;;;2.17;;
71941;SDS011;59997;53.300;-6.260;2023-08-06T04:40:36;8.68;;;2.00;;
71941;SDS011;59997;53.300;-6.260;2023-08-06T04:43:02;5.53;;;1.70;;
71941;SDS011;59997;53.300;-6.260;2023-08-06T04:45:28;9.13;;;2.00;;
71941;SDS011;59997;53.300;-6.260;2023-08-06T04:47:53;10.27;;;1.83;;
71941;SDS011;59997;53.300;-6.260;2023-08-06T04:50:19;8.90;;;2.00;;
71941;SDS011;59997;53.300;-6.260;2023-08-06T04:52:45;7.68;;;1.98;;
71941;SDS011;59997;53.300;-6.260;2023-08-06T04:55:10;7.87;;;1.60;;
71941;SDS011;59997;53.300;-6.260;2023-08-06T04:57:36;7.95;;;1.90;;
71941;SDS011;59997;53.300;-6.260;2023-08-06T05:00:01;8.97;;;1.83;;
71941;SDS011;59997;53.300;-6.260;2023-08-06T05:02:27;8.43;;;2.20;;
71941;SDS011;59997;53.300;-6.260;2023-08-06T05:04:53;8.67;;;1.57;;
71941;SDS011;59997;53.300;-6.260;2023-08-06T05:07:18;6.60;;;1.67;;
71941;SDS011;59997;53.300;-6.260;2023-08-06T05:09:44;6.97;;;1.70;;
71941;SDS011;59997;53.300;-6.260;2023-08-06T05:12:09;6.93;;;1.87;;
71941;SDS011;59997;53.300;-6.260;2023-08-06T05:14:35;8.50;;;1.95;;
71941;SDS011;59997;53.300;-6.260;2023-08-06T05:17:00;7.27;;;2.10;;
71941;SDS011;59997;53.300;-6.260;2023-08-06T05:19:27;9.20;;;1.90;;
71941;SDS011;59997;53.300;-6.260;2023-08-06T05:21:52;7.57;;;2.00;;
71941;SDS011;59997;53.300;-6.260;2023-08-06T05:24:18;9.97;;;1.83;;
71941;SDS011;59997;53.300;-6.260;2023-08-06T05:26:44;10.63;;;1.95;;
71941;SDS011;59997;53.300;-6.260;2023-08-06T05:29:11;7.55;;;1.77;;
71941;SDS011;59997;53.300;-6.260;2023-08-06T05:31:37;7.60;;;2.03;;
71941;SDS011;59997;53.300;-6.260;2023-08-06T05:34:02;15.55;;;2.03;;
71941;SDS011;59997;53.300;-6.260;2023-08-06T05:36:28;6.63;;;1.67;;
71941;SDS011;59997;53.300;-6.260;2023-08-06T05:38:53;7.83;;;1.90;;
71941;SDS011;59997;53.300;-6.260;2023-08-06T05:41:19;7.60;;;2.00;;
71941;SDS011;59997;53.300;-6.260;2023-08-06T05:43:44;11.03;;;2.67;;
71941;SDS011;59997;53.300;-6.260;2023-08-06T05:46:10;8.50;;;2.10;;
71941;SDS011;59997;53.300;-6.260;2023-08-06T05:48:36;9.63;;;1.97;;
71941;SDS011;59997;53.300;-6.260;2023-08-06T05:51:01;9.00;;;1.70;;
71941;SDS011;59997;53.300;-6.260;2023-08-06T05:53:27;8.70;;;1.73;;
71941;SDS011;59997;53.300;-6.260;2023-08-06T05:55:52;7.63;;;1.95;;
71941;SDS011;59997;53.300;-6.260;2023-08-06T05:58:18;8.73;;;1.90;;
71941;SDS011;59997;53.300;-6.260;2023-08-06T06:00:45;7.57;;;2.15;;
71941;SDS011;59997;53.300;-6.260;2023-08-06T06:03:10;10.97;;;2.10;;
71941;SDS011;59997;53.300;-6.260;2023-08-06T06:05:39;8.43;;;1.80;;
71941;SDS011;59997;53.300;-6.260;2023-08-06T06:08:05;7.20;;;1.50;;
71941;SDS011;59997;53.300;-6.260;2023-08-06T06:10:30;7.05;;;1.98;;
71941;SDS011;59997;53.300;-6.260;2023-08-06T06:12:56;8.07;;;1.47;;
71941;SDS011;59997;53.300;-6.260;2023-08-06T06:15:21;10.67;;;2.20;;
71941;SDS011;59997;53.300;-6.260;2023-08-06T06:17:47;6.55;;;1.55;;
71941;SDS011;59997;53.300;-6.260;2023-08-06T06:20:12;6.30;;;1.40;;
71941;SDS011;59997;53.300;-6.260;2023-08-06T06:22:38;9.57;;;1.87;;
71941;SDS011;59997;53.300;-6.260;2023-08-06T06:25:03;8.25;;;2.03;;
71941;SDS011;59997;53.300;-6.260;2023-08-06T06:27:29;5.33;;;1.20;;
71941;SDS011;59997;53.300;-6.260;2023-08-06T06:29:55;7.78;;;1.70;;
71941;SDS011;59997;53.300;-6.260;2023-08-06T06:32:20;7.27;;;1.87;;
71941;SDS011;59997;53.300;-6.260;2023-08-06T06:34:46;6.65;;;1.83;;
71941;SDS011;59997;53.300;-6.260;2023-08-06T06:37:12;9.80;;;1.70;;
71941;SDS011;59997;53.300;-6.260;2023-08-06T06:39:37;7.57;;;1.77;;
71941;SDS011;59997;53.300;-6.260;2023-08-06T06:42:03;6.15;;;1.70;;
71941;SDS011;59997;53.300;-6.260;2023-08-06T06:44:28;8.10;;;1.57;;
71941;SDS011;59997;53.300;-6.260;2023-08-06T06:46:54;6.70;;;1.40;;
71941;SDS011;59997;53.300;-6.260;2023-08-06T06:49:19;9.10;;;1.33;;
71941;SDS011;59997;53.300;-6.260;2023-08-06T06:51:45;6.20;;;1.27;;
71941;SDS011;59997;53.300;-6.260;2023-08-06T06:54:10;7.17;;;1.30;;
71941;SDS011;59997;53.300;-6.260;2023-08-06T06:56:36;6.07;;;1.30;;
71941;SDS011;59997;53.300;-6.260;2023-08-06T06:59:02;9.03;;;1.50;;
71941;SDS011;59997;53.300;-6.260;2023-08-06T07:01:27;6.90;;;1.63;;
71941;SDS011;59997;53.300;-6.260;2023-08-06T07:03:53;7.70;;;2.00;;
71941;SDS011;59997;53.300;-6.260;2023-08-06T07:06:18;9.30;;;1.60;;
71941;SDS011;59997;53.300;-6.260;2023-08-06T07:08:44;8.25;;;1.95;;
71941;SDS011;59997;53.300;-6.260;2023-08-06T07:11:10;6.07;;;1.30;;
71941;SDS011;59997;53.300;-6.260;2023-08-06T07:13:36;6.65;;;1.73;;
71941;SDS011;59997;53.300;-6.260;2023-08-06T07:16:02;6.13;;;1.65;;
71941;SDS011;59997;53.300;-6.260;2023-08-06T07:18:27;7.00;;;1.30;;
71941;SDS011;59997;53.300;-6.260;2023-08-06T07:20:54;6.50;;;1.70;;
71941;SDS011;59997;53.300;-6.260;2023-08-06T07:23:24;7.47;;;1.75;;
71941;SDS011;59997;53.300;-6.260;2023-08-06T07:25:50;5.88;;;1.63;;
71941;SDS011;59997;53.300;-6.260;2023-08-06T07:28:16;6.83;;;1.80;;
71941;SDS011;59997;53.300;-6.260;2023-08-06T07:30:42;7.05;;;1.90;;
71941;SDS011;59997;53.300;-6.260;2023-08-06T07:33:09;7.05;;;1.90;;
71941;SDS011;59997;53.300;-6.260;2023-08-06T07:35:35;7.00;;;1.50;;
71941;SDS011;59997;53.300;-6.260;2023-08-06T07:38:00;7.38;;;1.73;;
71941;SDS011;59997;53.300;-6.260;2023-08-06T07:40:26;5.77;;;1.87;;
71941;SDS011;59997;53.300;-6.260;2023-08-06T07:42:51;6.73;;;1.80;;
71941;SDS011;59997;53.300;-6.260;2023-08-06T07:45:17;7.15;;;1.83;;
71941;SDS011;59997;53.300;-6.260;2023-08-06T07:47:42;6.37;;;1.30;;
71941;SDS011;59997;53.300;-6.260;2023-08-06T07:50:08;6.33;;;1.77;;
71941;SDS011;59997;53.300;-6.260;2023-08-06T07:52:34;10.07;;;1.40;;
71941;SDS011;59997;53.300;-6.260;2023-08-06T07:54:59;7.55;;;1.60;;
71941;SDS011;59997;53.300;-6.260;2023-08-06T07:57:26;5.77;;;1.30;;
71941;SDS011;59997;53.300;-6.260;2023-08-06T07:59:52;9.75;;;1.80;;
71941;SDS011;59997;53.300;-6.260;2023-08-06T08:02:19;8.05;;;1.80;;
71941;SDS011;59997;53.300;-6.260;2023-08-06T08:04:44;6.77;;;1.80;;
71941;SDS011;59997;53.300;-6.260;2023-08-06T08:07:12;7.32;;;2.33;;
71941;SDS011;59997;53.300;-6.260;2023-08-06T08:09:38;5.97;;;1.60;;
71941;SDS011;59997;53.300;-6.260;2023-08-06T08:12:03;5.67;;;1.30;;
71941;SDS011;59997;53.300;-6.260;2023-08-06T08:14:29;6.95;;;1.60;;
71941;SDS011;59997;53.300;-6.260;2023-08-06T08:17:00;6.97;;;1.50;;
71941;SDS011;59997;53.300;-6.260;2023-08-06T08:19:26;5.13;;;1.40;;
71941;SDS011;59997;53.300;-6.260;2023-08-06T08:21:51;8.13;;;2.17;;
71941;SDS011;59997;53.300;-6.260;2023-08-06T08:24:17;8.68;;;1.98;;
71941;SDS011;59997;53.300;-6.260;2023-08-06T08:26:44;6.77;;;1.90;;
71941;SDS011;59997;53.300;-6.260;2023-08-06T08:29:10;7.70;;;2.38;;
71941;SDS011;59997;53.300;-6.260;2023-08-06T08:31:35;6.93;;;1.67;;
71941;SDS011;59997;53.300;-6.260;2023-08-06T08:34:04;7.85;;;1.73;;
71941;SDS011;59997;53.300;-6.260;2023-08-06T08:36:30;7.40;;;1.90;;
71941;SDS011;59997;53.300;-6.260;2023-08-06T08:38:56;6.80;;;1.60;;
71941;SDS011;59997;53.300;-6.260;2023-08-06T08:41:21;7.93;;;1.77;;
71941;SDS011;59997;53.300;-6.260;2023-08-06T08:43:48;7.63;;;1.60;;
71941;SDS011;59997;53.300;-6.260;2023-08-06T08:46:16;7.10;;;2.10;;
71941;SDS011;59997;53.300;-6.260;2023-08-06T08:48:43;7.57;;;1.80;;
71941;SDS011;59997;53.300;-6.260;2023-08-06T08:51:09;6.00;;;2.33;;
71941;SDS011;59997;53.300;-6.260;2023-08-06T08:53:36;7.60;;;2.30;;
71941;SDS011;59997;53.300;-6.260;2023-08-06T08:56:04;7.57;;;2.30;;
71941;SDS011;59997;53.300;-6.260;2023-08-06T08:58:30;5.97;;;2.28;;
71941;SDS011;59997;53.300;-6.260;2023-08-06T09:00:55;7.63;;;2.23;;
71941;SDS011;59997;53.300;-6.260;2023-08-06T09:03:22;5.75;;;1.65;;
71941;SDS011;59997;53.300;-6.260;2023-08-06T09:05:49;5.88;;;1.98;;
71941;SDS011;59997;53.300;-6.260;2023-08-06T09:08:18;6.55;;;2.40;;
71941;SDS011;59997;53.300;-6.260;2023-08-06T09:10:48;7.07;;;2.53;;
71941;SDS011;59997;53.300;-6.260;2023-08-06T09:13:14;6.55;;;2.00;;
71941;SDS011;59997;53.300;-6.260;2023-08-06T09:15:40;8.37;;;2.27;;
71941;SDS011;59997;53.300;-6.260;2023-08-06T09:18:11;6.65;;;2.05;;
71941;SDS011;59997;53.300;-6.260;2023-08-06T09:20:38;6.97;;;2.40;;
71941;SDS011;59997;53.300;-6.260;2023-08-06T09:23:10;7.97;;;2.37;;
71941;SDS011;59997;53.300;-6.260;2023-08-06T09:25:38;6.15;;;2.45;;
71941;SDS011;59997;53.300;-6.260;2023-08-06T09:28:05;6.18;;;2.20;;
71941;SDS011;59997;53.300;-6.260;2023-08-06T09:30:32;6.97;;;1.88;;
71941;SDS011;59997;53.300;-6.260;2023-08-06T09:32:58;7.15;;;1.88;;
71941;SDS011;59997;53.300;-6.260;2023-08-06T09:35:24;5.93;;;1.40;;
71941;SDS011;59997;53.300;-6.260;2023-08-06T09:37:50;6.67;;;1.03;;
71941;SDS011;59997;53.300;-6.260;2023-08-06T09:40:25;7.75;;;1.83;;
71941;SDS011;59997;53.300;-6.260;2023-08-06T09:42:55;7.80;;;1.90;;
71941;SDS011;59997;53.300;-6.260;2023-08-06T09:45:21;6.80;;;1.30;;
71941;SDS011;59997;53.300;-6.260;2023-08-06T09:47:47;6.40;;;1.40;;
71941;SDS011;59997;53.300;-6.260;2023-08-06T09:50:19;6.03;;;1.50;;
71941;SDS011;59997;53.300;-6.260;2023-08-06T09:52:48;7.30;;;2.00;;
71941;SDS011;59997;53.300;-6.260;2023-08-06T09:55:16;6.67;;;1.20;;
71941;SDS011;59997;53.300;-6.260;2023-08-06T09:57:43;6.97;;;1.58;;
71941;SDS011;59997;53.300;-6.260;2023-08-06T10:00:09;5.43;;;1.50;;
71941;SDS011;59997;53.300;-6.260;2023-08-06T10:02:39;7.50;;;1.48;;
71941;SDS011;59997;53.300;-6.260;2023-08-06T10:05:08;6.82;;;1.27;;
71941;SDS011;59997;53.300;-6.260;2023-08-06T10:07:34;9.10;;;1.40;;
71941;SDS011;59997;53.300;-6.260;2023-08-06T10:10:01;6.90;;;1.90;;
71941;SDS011;59997;53.300;-6.260;2023-08-06T10:12:34;5.82;;;1.70;;
71941;SDS011;59997;53.300;-6.260;2023-08-06T10:15:03;6.43;;;1.55;;
71941;SDS011;59997;53.300;-6.260;2023-08-06T10:17:31;5.45;;;1.65;;
71941;SDS011;59997;53.300;-6.260;2023-08-06T10:19:59;5.07;;;1.80;;
71941;SDS011;59997;53.300;-6.260;2023-08-06T10:22:25;6.88;;;1.30;;
71941;SDS011;59997;53.300;-6.260;2023-08-06T10:24:55;5.80;;;1.25;;
71941;SDS011;59997;53.300;-6.260;2023-08-06T10:33:00;4.35;;;1.05;;
71941;SDS011;59997;53.300;-6.260;2023-08-06T10:35:34;5.53;;;1.40;;
71941;SDS011;59997;53.300;-6.260;2023-08-06T10:38:17;8.07;;;1.60;;
71941;SDS011;59997;53.300;-6.260;2023-08-06T10:43:34;6.20;;;0.90;;
71941;SDS011;59997;53.300;-6.260;2023-08-06T10:46:03;4.93;;;1.20;;
71941;SDS011;59997;53.300;-6.260;2023-08-06T10:48:40;5.18;;;1.05;;
71941;SDS011;59997;53.300;-6.260;2023-08-06T10:51:07;4.78;;;0.93;;
71941;SDS011;59997;53.300;-6.260;2023-08-06T10:53:35;5.03;;;1.33;;
71941;SDS011;59997;53.300;-6.260;2023-08-06T10:56:02;6.97;;;1.23;;
71941;SDS011;59997;53.300;-6.260;2023-08-06T10:58:36;5.15;;;1.20;;
71941;SDS011;59997;53.300;-6.260;2023-08-06T11:01:02;4.43;;;1.00;;
71941;SDS011;59997;53.300;-6.260;2023-08-06T11:03:27;4.57;;;1.40;;
71941;SDS011;59997;53.300;-6.260;2023-08-06T11:05:53;6.27;;;1.30;;
71941;SDS011;59997;53.300;-6.260;2023-08-06T11:08:32;5.23;;;1.47;;
71941;SDS011;59997;53.300;-6.260;2023-08-06T11:11:14;5.68;;;1.20;;
71941;SDS011;59997;53.300;-6.260;2023-08-06T11:13:45;6.33;;;1.30;;
71941;SDS011;59997;53.300;-6.260;2023-08-06T11:16:15;5.15;;;1.15;;
71941;SDS011;59997;53.300;-6.260;2023-08-06T11:18:43;8.38;;;1.40;;
71941;SDS011;59997;53.300;-6.260;2023-08-06T11:21:09;6.32;;;1.00;;
71941;SDS011;59997;53.300;-6.260;2023-08-06T11:23:36;5.78;;;0.90;;
71941;SDS011;59997;53.300;-6.260;2023-08-06T11:26:02;4.77;;;0.90;;
71941;SDS011;59997;53.300;-6.260;2023-08-06T11:28:28;4.50;;;0.70;;
71941;SDS011;59997;53.300;-6.260;2023-08-06T11:30:53;4.53;;;0.87;;
71941;SDS011;59997;53.300;-6.260;2023-08-06T11:33:22;4.35;;;0.75;;
71941;SDS011;59997;53.300;-6.260;2023-08-06T11:35:50;4.68;;;0.75;;
71941;SDS011;59997;53.300;-6.260;2023-08-06T11:38:16;3.27;;;0.50;;
71941;SDS011;59997;53.300;-6.260;2023-08-06T11:40:43;4.75;;;0.88;;
71941;SDS011;59997;53.300;-6.260;2023-08-06T11:43:10;6.13;;;0.82;;
71941;SDS011;59997;53.300;-6.260;2023-08-06T11:45:36;9.17;;;1.90;;
71941;SDS011;59997;53.300;-6.260;2023-08-06T11:48:01;6.22;;;1.35;;
71941;SDS011;59997;53.300;-6.260;2023-08-06T11:50:28;6.83;;;0.93;;
71941;SDS011;59997;53.300;-6.260;2023-08-06T11:52:57;4.53;;;1.08;;
71941;SDS011;59997;53.300;-6.260;2023-08-06T11:55:24;5.68;;;1.80;;
71941;SDS011;59997;53.300;-6.260;2023-08-06T11:57:50;6.25;;;1.70;;
71941;SDS011;59997;53.300;-6.260;2023-08-06T12:00:16;6.70;;;1.43;;
71941;SDS011;59997;53.300;-6.260;2023-08-06T12:02:47;5.85;;;1.48;;
71941;SDS011;59997;53.300;-6.260;2023-08-06T12:05:14;5.30;;;1.60;;
71941;SDS011;59997;53.300;-6.260;2023-08-06T12:07:41;4.10;;;1.00;;
71941;SDS011;59997;53.300;-6.260;2023-08-06T12:10:09;5.03;;;1.17;;
71941;SDS011;59997;53.300;-6.260;2023-08-06T12:12:34;4.43;;;0.90;;
71941;SDS011;59997;53.300;-6.260;2023-08-06T12:15:00;6.35;;;1.00;;
71941;SDS011;59997;53.300;-6.260;2023-08-06T12:17:26;4.80;;;1.40;;
71941;SDS011;59997;53.300;-6.260;2023-08-06T12:19:52;5.50;;;1.42;;
71941;SDS011;59997;53.300;-6.260;2023-08-06T12:22:17;4.60;;;1.30;;
71941;SDS011;59997;53.300;-6.260;2023-08-06T12:24:43;5.07;;;1.33;;
71941;SDS011;59997;53.300;-6.260;2023-08-06T12:27:11;5.32;;;1.20;;
71941;SDS011;59997;53.300;-6.260;2023-08-06T12:29:37;4.93;;;1.10;;
71941;SDS011;59997;53.300;-6.260;2023-08-06T12:32:06;4.53;;;1.23;;
71941;SDS011;59997;53.300;-6.260;2023-08-06T12:34:31;4.50;;;1.38;;
71941;SDS011;59997;53.300;-6.260;2023-08-06T12:36:56;4.63;;;1.27;;
71941;SDS011;59997;53.300;-6.260;2023-08-06T12:39:22;5.30;;;1.50;;
71941;SDS011;59997;53.300;-6.260;2023-08-06T12:41:47;4.20;;;1.10;;
71941;SDS011;59997;53.300;-6.260;2023-08-06T12:44:13;4.50;;;0.98;;
71941;SDS011;59997;53.300;-6.260;2023-08-06T12:46:39;5.80;;;0.82;;
71941;SDS011;59997;53.300;-6.260;2023-08-06T12:49:05;3.37;;;0.63;;
71941;SDS011;59997;53.300;-6.260;2023-08-06T12:51:30;4.20;;;0.93;;
71941;SDS011;59997;53.300;-6.260;2023-08-06T12:53:56;4.25;;;0.77;;
71941;SDS011;59997;53.300;-6.260;2023-08-06T12:56:21;4.03;;;0.93;;
71941;SDS011;59997;53.300;-6.260;2023-08-06T12:58:47;4.57;;;1.10;;
71941;SDS011;59997;53.300;-6.260;2023-08-06T13:01:12;4.80;;;1.10;;
71941;SDS011;59997;53.300;-6.260;2023-08-06T13:03:38;6.43;;;1.20;;
71941;SDS011;59997;53.300;-6.260;2023-08-06T13:06:03;5.87;;;1.10;;
71941;SDS011;59997;53.300;-6.260;2023-08-06T13:08:29;4.30;;;0.82;;
71941;SDS011;59997;53.300;-6.260;2023-08-06T13:10:54;5.47;;;1.10;;
71941;SDS011;59997;53.300;-6.260;2023-08-06T13:13:20;5.00;;;0.97;;
71941;SDS011;59997;53.300;-6.260;2023-08-06T13:15:45;3.90;;;0.90;;
71941;SDS011;59997;53.300;-6.260;2023-08-06T13:18:10;4.43;;;1.10;;
71941;SDS011;59997;53.300;-6.260;2023-08-06T13:20:37;4.83;;;0.90;;
71941;SDS011;59997;53.300;-6.260;2023-08-06T13:23:05;5.72;;;1.27;;
71941;SDS011;59997;53.300;-6.260;2023-08-06T13:25:31;5.23;;;1.40;;
71941;SDS011;59997;53.300;-6.260;2023-08-06T13:28:01;5.00;;;1.05;;
71941;SDS011;59997;53.300;-6.260;2023-08-06T13:30:28;4.97;;;1.00;;
71941;SDS011;59997;53.300;-6.260;2023-08-06T13:32:53;5.10;;;0.80;;
71941;SDS011;59997;53.300;-6.260;2023-08-06T13:35:20;3.88;;;0.88;;
71941;SDS011;59997;53.300;-6.260;2023-08-06T13:37:46;4.10;;;1.00;;
71941;SDS011;59997;53.300;-6.260;2023-08-06T13:40:13;4.05;;;0.80;;
71941;SDS011;59997;53.300;-6.260;2023-08-06T13:42:38;4.40;;;1.30;;
71941;SDS011;59997;53.300;-6.260;2023-08-06T13:45:04;4.40;;;0.85;;
71941;SDS011;59997;53.300;-6.260;2023-08-06T13:47:31;5.10;;;1.02;;
71941;SDS011;59997;53.300;-6.260;2023-08-06T13:49:56;4.17;;;0.80;;
71941;SDS011;59997;53.300;-6.260;2023-08-06T13:52:22;6.40;;;1.37;;
71941;SDS011;59997;53.300;-6.260;2023-08-06T13:54:47;5.30;;;1.20;;
71941;SDS011;59997;53.300;-6.260;2023-08-06T13:57:13;5.03;;;0.90;;
71941;SDS011;59997;53.300;-6.260;2023-08-06T13:59:39;5.57;;;1.00;;
71941;SDS011;59997;53.300;-6.260;2023-08-06T14:02:04;5.68;;;1.05;;
71941;SDS011;59997;53.300;-6.260;2023-08-06T14:04:30;5.33;;;1.03;;
71941;SDS011;59997;53.300;-6.260;2023-08-06T14:06:55;6.50;;;1.17;;
71941;SDS011;59997;53.300;-6.260;2023-08-06T14:09:20;5.60;;;1.63;;
71941;SDS011;59997;53.300;-6.260;2023-08-06T14:11:46;4.35;;;1.10;;
71941;SDS011;59997;53.300;-6.260;2023-08-06T14:14:11;5.73;;;1.13;;
71941;SDS011;59997;53.300;-6.260;2023-08-06T14:16:37;4.93;;;0.90;;
71941;SDS011;59997;53.300;-6.260;2023-08-06T14:19:03;4.53;;;1.20;;
71941;SDS011;59997;53.300;-6.260;2023-08-06T14:21:31;4.00;;;0.80;;
71941;SDS011;59997;53.300;-6.260;2023-08-06T14:23:56;3.70;;;0.70;;
71941;SDS011;59997;53.300;-6.260;2023-08-06T14:26:22;4.03;;;0.83;;
71941;SDS011;59997;53.300;-6.260;2023-08-06T14:28:47;6.00;;;1.00;;
71941;SDS011;59997;53.300;-6.260;2023-08-06T14:31:13;5.45;;;0.82;;
71941;SDS011;59997;53.300;-6.260;2023-08-06T14:33:38;4.37;;;1.00;;
71941;SDS011;59997;53.300;-6.260;2023-08-06T14:36:04;5.60;;;0.90;;
71941;SDS011;59997;53.300;-6.260;2023-08-06T14:38:30;5.78;;;0.90;;
71941;SDS011;59997;53.300;-6.260;2023-08-06T14:40:55;4.27;;;1.00;;
71941;SDS011;59997;53.300;-6.260;2023-08-06T14:43:21;5.27;;;1.07;;
71941;SDS011;59997;53.300;-6.260;2023-08-06T14:45:47;5.10;;;1.13;;